Terminal Aerodrome Forecast
Issued by NWS Lake Charles, LA

Home | Current Version | Previous Version | Text Only | Print | Product List | Glossary On
Versions: 1 2 3 4 5 6 7 8 9 10 11 12 13 14 15
445
FTUS44 KLCH 210539
TAFAEX
TAF
KAEX 210539Z 2106/2206 17008KT P6SM VCSH BKN015 OVC025
     FM210900 16007KT P6SM VCSH OVC007
     FM211500 15012KT P6SM -SHRA OVC015
     FM211700 15013G20KT P6SM -TSRA OVC025CB
      TEMPO 2118/2122 VRB20G30KT 3SM TSRA OVC007CB
     FM220100 14008KT 5SM BR VCSH OVC015=

USA.gov is the U.S. government's official web portal to all federal, state and local government web resources and services.